createdAt,value
2022-08-17T00:01:22.567Z,30.35
2022-08-17T00:03:54.942Z,30.92
2022-08-17T00:06:27.899Z,32.10
2022-08-17T00:09:01.546Z,31.00
2022-08-17T00:11:43.909Z,33.35
2022-08-17T00:14:37.112Z,31.05
2022-08-17T00:17:07.747Z,30.98
2022-08-17T00:19:39.140Z,31.63
2022-08-17T00:22:33.172Z,29.60
2022-08-17T00:24:58.213Z,32.75
2022-08-17T00:27:28.254Z,34.38
2022-08-17T00:29:58.547Z,31.80
2022-08-17T00:33:12.354Z,32.42
2022-08-17T00:35:25.078Z,30.40
2022-08-17T00:37:52.959Z,33.38
2022-08-17T00:40:21.528Z,31.67
2022-08-17T00:42:56.515Z,29.85
2022-08-17T00:45:26.439Z,31.50
2022-08-17T00:47:59.775Z,31.45
2022-08-17T00:50:29.826Z,30.52
2022-08-17T00:53:00.384Z,30.98
2022-08-17T00:55:36.808Z,30.45
2022-08-17T00:58:07.748Z,31.02
2022-08-17T01:00:45.863Z,31.77
2022-08-17T01:03:21.957Z,28.10
2022-08-17T01:06:09.700Z,33.03
2022-08-17T01:11:24.736Z,29.55
2022-08-17T01:14:01.487Z,31.55
2022-08-17T01:16:32.500Z,29.67
2022-08-17T01:19:17.721Z,32.58
2022-08-17T01:22:10.739Z,31.42
2022-08-17T01:24:49.974Z,33.03
2022-08-17T01:27:20.601Z,32.03
2022-08-17T01:30:01.930Z,30.52
2022-08-17T01:32:31.386Z,31.25
2022-08-17T01:35:04.680Z,31.13
2022-08-17T01:37:44.219Z,31.77
2022-08-17T01:40:44.405Z,31.98
2022-08-17T01:43:27.781Z,33.17
2022-08-17T01:46:03.539Z,35.00
2022-08-17T01:48:38.554Z,33.13
2022-08-17T01:51:07.950Z,35.65
2022-08-17T01:53:44.712Z,35.20
2022-08-17T01:56:25.019Z,34.67
2022-08-17T01:59:02.124Z,33.05
2022-08-17T02:01:34.972Z,34.42
2022-08-17T02:04:18.248Z,31.48
2022-08-17T02:07:01.194Z,30.80
2022-08-17T02:09:30.207Z,30.63
2022-08-17T02:12:37.900Z,33.38
2022-08-17T02:14:51.878Z,34.78
2022-08-17T02:17:19.323Z,34.40
2022-08-17T02:19:46.800Z,31.98
2022-08-17T02:22:15.615Z,33.55
2022-08-17T02:24:58.627Z,31.27
2022-08-17T02:27:30.060Z,34.80
2022-08-17T02:29:57.752Z,32.88
2022-08-17T02:32:27.945Z,31.38
2022-08-17T02:35:00.285Z,33.13
2022-08-17T02:37:29.858Z,36.33
2022-08-17T02:39:59.631Z,33.28
2022-08-17T02:42:38.871Z,33.17
2022-08-17T02:45:15.822Z,31.23
2022-08-17T02:47:44.899Z,34.63
2022-08-17T02:50:18.596Z,33.42
2022-08-17T02:52:48.887Z,32.70
2022-08-17T02:55:37.156Z,33.97
2022-08-17T02:58:05.239Z,33.38
2022-08-17T03:00:40.958Z,34.13
2022-08-17T03:03:13.441Z,31.83
2022-08-17T03:05:41.023Z,35.05
2022-08-17T03:08:10.450Z,36.53
2022-08-17T03:10:42.313Z,34.83
2022-08-17T03:13:11.115Z,35.33
2022-08-17T03:15:40.653Z,36.20
2022-08-17T03:18:24.243Z,34.60
2022-08-17T03:21:00.268Z,35.10
2022-08-17T03:23:29.638Z,36.63
2022-08-17T03:25:58.509Z,35.75
2022-08-17T03:28:28.207Z,34.47
2022-08-17T03:30:55.701Z,34.05
2022-08-17T03:33:23.280Z,35.42
2022-08-17T03:35:51.895Z,36.55
2022-08-17T03:38:19.867Z,34.97
2022-08-17T03:40:57.381Z,35.78
2022-08-17T03:43:31.305Z,31.77
2022-08-17T03:46:28.386Z,35.35
2022-08-17T03:49:26.917Z,34.40
2022-08-17T03:52:15.873Z,34.40
2022-08-17T03:55:03.453Z,32.70
2022-08-17T03:57:32.414Z,35.00
2022-08-17T03:59:59.946Z,34.38
2022-08-17T04:02:32.905Z,33.50
2022-08-17T04:05:00.700Z,33.38
2022-08-17T04:07:31.177Z,36.40
2022-08-17T04:09:59.627Z,37.72
2022-08-17T04:12:31.565Z,33.28
2022-08-17T04:14:59.454Z,35.40
2022-08-17T04:17:29.172Z,36.30
2022-08-17T04:19:56.930Z,35.17
2022-08-17T04:22:32.737Z,34.63
2022-08-17T04:25:08.218Z,35.33
2022-08-17T04:27:36.565Z,33.60
2022-08-17T04:30:07.449Z,36.15
2022-08-17T04:33:11.012Z,37.10
2022-08-17T04:35:43.877Z,35.47
2022-08-17T04:38:21.577Z,39.03
2022-08-17T04:41:07.562Z,36.20
2022-08-17T04:43:37.744Z,36.67
2022-08-17T04:46:11.307Z,36.28
2022-08-17T04:48:43.820Z,36.08
2022-08-17T04:51:18.740Z,34.47
2022-08-17T04:53:54.285Z,37.60
2022-08-17T04:56:25.965Z,37.80
2022-08-17T04:58:59.550Z,39.00
2022-08-17T05:01:32.721Z,37.35
2022-08-17T05:04:33.092Z,36.92
2022-08-17T05:06:55.675Z,39.35
2022-08-17T05:09:23.206Z,38.28
2022-08-17T05:11:51.991Z,37.80
2022-08-17T05:14:19.582Z,37.78
2022-08-17T05:16:49.277Z,40.35
2022-08-17T05:19:16.763Z,38.70
2022-08-17T05:21:44.368Z,39.70
2022-08-17T05:24:38.201Z,37.78
2022-08-17T05:27:06.030Z,37.15
2022-08-17T05:29:35.633Z,36.90
2022-08-17T05:32:39.570Z,37.78
2022-08-17T05:35:00.449Z,38.83
2022-08-17T05:37:28.581Z,36.22
2022-08-17T05:39:56.182Z,36.55
2022-08-17T05:42:24.121Z,37.45
2022-08-17T05:44:52.622Z,36.60
2022-08-17T05:47:23.330Z,37.83
2022-08-17T05:49:50.966Z,38.60
2022-08-17T05:52:50.187Z,38.97
2022-08-17T05:55:45.233Z,35.58
2022-08-17T05:58:35.741Z,38.72
2022-08-17T06:01:12.690Z,38.45
2022-08-17T06:04:16.531Z,39.65
2022-08-17T06:07:06.650Z,39.60
2022-08-17T06:09:50.555Z,41.40
2022-08-17T06:13:01.456Z,40.00
2022-08-17T06:15:50.022Z,44.50
2022-08-17T06:18:21.988Z,40.85
2022-08-17T06:20:56.287Z,37.53
2022-08-17T06:23:48.106Z,41.70
2022-08-17T06:29:31.517Z,41.03
2022-08-17T06:31:59.160Z,40.00
2022-08-17T06:34:26.754Z,36.97
2022-08-17T06:37:07.846Z,37.60
2022-08-17T06:40:07.172Z,36.55
2022-08-17T06:43:08.855Z,37.95
2022-08-17T06:46:24.028Z,38.78
2022-08-17T06:49:34.276Z,39.85
2022-08-17T06:52:46.716Z,39.50
2022-08-17T06:55:26.277Z,39.42
2022-08-17T06:58:09.389Z,39.60
2022-08-17T07:00:47.974Z,37.60
2022-08-17T07:03:40.966Z,38.55
2022-08-17T07:06:16.952Z,37.92
2022-08-17T07:08:58.970Z,36.70
2022-08-17T07:11:38.305Z,37.70
2022-08-17T07:14:37.946Z,38.92
2022-08-17T07:17:14.377Z,34.92
2022-08-17T07:19:45.951Z,35.30
2022-08-17T07:25:22.342Z,34.97
2022-08-17T07:27:54.510Z,35.67
2022-08-17T07:30:28.036Z,37.70
2022-08-17T07:33:08.721Z,40.83
2022-08-17T07:35:44.520Z,40.85
2022-08-17T07:38:24.800Z,38.00
2022-08-17T07:41:03.807Z,36.47
2022-08-17T07:43:38.046Z,35.15
2022-08-17T07:46:30.578Z,33.05
2022-08-17T07:49:20.534Z,34.97
2022-08-17T07:51:47.983Z,33.92
2022-08-17T07:54:15.506Z,31.33
2022-08-17T07:56:59.898Z,33.58
2022-08-17T07:59:36.409Z,34.35
2022-08-17T08:02:33.871Z,32.58
2022-08-17T08:05:30.732Z,31.15
2022-08-17T08:08:28.140Z,32.13
2022-08-17T08:11:07.267Z,29.05
2022-08-17T08:13:42.747Z,29.48
2022-08-17T08:16:29.677Z,28.88
2022-08-17T08:19:02.044Z,32.03
2022-08-17T08:21:55.085Z,34.17
2022-08-17T08:25:01.245Z,38.72
2022-08-17T08:28:21.374Z,37.88
2022-08-17T08:31:12.726Z,38.60
2022-08-17T08:34:58.678Z,39.35
2022-08-17T08:37:20.832Z,39.33
2022-08-17T08:40:11.423Z,40.95
2022-08-17T08:43:19.596Z,40.30
2022-08-17T08:46:06.298Z,39.42
2022-08-17T08:49:12.114Z,35.92
2022-08-17T08:51:58.918Z,34.03
2022-08-17T08:54:42.693Z,40.60
2022-08-17T08:57:36.407Z,41.03
2022-08-17T09:00:22.943Z,41.60
2022-08-17T09:03:51.917Z,37.97
2022-08-17T09:07:18.888Z,38.60
2022-08-17T09:10:17.090Z,32.85
2022-08-17T09:13:27.011Z,34.08
2022-08-17T09:16:15.220Z,30.45
2022-08-17T09:19:02.609Z,34.85
2022-08-17T09:21:52.602Z,32.78
2022-08-17T09:24:34.674Z,30.70
2022-08-17T09:27:30.524Z,33.92
2022-08-17T09:30:10.301Z,28.70
2022-08-17T09:32:46.124Z,28.40
2022-08-17T09:35:44.488Z,30.70
2022-08-17T09:38:40.501Z,31.55
2022-08-17T09:41:24.933Z,29.02
2022-08-17T09:44:14.057Z,29.83
2022-08-17T09:47:03.524Z,29.33
2022-08-17T09:49:52.511Z,28.80
2022-08-17T09:52:30.473Z,28.60
2022-08-17T09:55:01.744Z,26.98
2022-08-17T09:58:05.066Z,28.33
2022-08-17T10:00:41.927Z,28.52
2022-08-17T10:03:30.677Z,27.33
2022-08-17T10:06:22.493Z,28.10
2022-08-17T10:09:14.489Z,30.00
2022-08-17T10:12:20.120Z,31.25
2022-08-17T10:15:08.145Z,28.02
2022-08-17T10:17:57.689Z,25.73
2022-08-17T10:20:33.985Z,26.48
2022-08-17T10:23:32.635Z,30.63
2022-08-17T10:26:24.954Z,31.50
2022-08-17T10:29:16.839Z,33.17
2022-08-17T10:31:54.909Z,34.70
2022-08-17T10:34:50.875Z,36.78
2022-08-17T10:37:59.187Z,37.90
2022-08-17T10:40:48.074Z,36.50
2022-08-17T10:43:55.843Z,36.42
2022-08-17T10:47:08.327Z,35.40
2022-08-17T10:49:47.814Z,39.90
2022-08-17T10:52:27.813Z,33.72
2022-08-17T10:54:58.279Z,34.60
2022-08-17T10:57:29.231Z,34.90
2022-08-17T11:00:42.429Z,36.77
2022-08-17T11:03:25.235Z,35.90
2022-08-17T11:06:14.211Z,34.90
2022-08-17T11:09:19.916Z,38.15
2022-08-17T11:11:47.528Z,40.67
2022-08-17T11:14:41.267Z,40.70
2022-08-17T11:17:53.150Z,40.15
2022-08-17T11:24:15.406Z,36.53
2022-08-17T11:27:00.875Z,37.35
2022-08-17T11:30:02.302Z,40.45
2022-08-17T11:32:52.958Z,39.97
2022-08-17T11:35:22.255Z,40.00
2022-08-17T11:38:16.032Z,41.13
2022-08-17T11:41:13.233Z,40.83
2022-08-17T11:44:16.574Z,39.30
2022-08-17T11:47:49.520Z,40.03
2022-08-17T11:51:29.640Z,40.58
2022-08-17T11:54:34.393Z,37.85
2022-08-17T11:57:26.886Z,40.97
2022-08-17T12:00:26.806Z,40.80
2022-08-17T12:03:32.228Z,40.45
2022-08-17T12:06:30.472Z,43.47
2022-08-17T12:09:27.336Z,42.13
2022-08-17T12:12:14.605Z,44.35
2022-08-17T12:15:15.662Z,43.25
2022-08-17T12:17:56.523Z,45.40
2022-08-17T12:20:29.860Z,41.47
2022-08-17T12:23:23.507Z,43.22
2022-08-17T12:26:05.085Z,42.83
2022-08-17T12:28:38.699Z,42.60
2022-08-17T12:31:15.121Z,43.55
2022-08-17T12:33:46.080Z,37.92
2022-08-17T12:36:21.301Z,37.13
2022-08-17T12:39:14.599Z,41.08
2022-08-17T12:41:46.986Z,44.95
2022-08-17T12:44:28.028Z,41.55
2022-08-17T12:47:21.961Z,46.20
2022-08-17T12:50:03.799Z,42.63
2022-08-17T12:52:33.052Z,45.95
2022-08-17T12:55:23.097Z,44.53
2022-08-17T12:57:59.461Z,44.50
2022-08-17T13:00:33.977Z,43.53
2022-08-17T13:03:20.178Z,45.72
2022-08-17T13:06:01.373Z,49.35
2022-08-17T13:08:45.380Z,47.50
2022-08-17T13:11:18.614Z,47.10
2022-08-17T13:13:51.240Z,47.03
2022-08-17T13:16:25.715Z,48.58
2022-08-17T13:19:05.457Z,47.35
2022-08-17T13:21:35.415Z,45.67
2022-08-17T13:24:12.099Z,47.88
2022-08-17T13:26:48.286Z,46.40
2022-08-17T13:29:29.073Z,45.50
2022-08-17T13:32:16.477Z,42.67
2022-08-17T13:35:16.269Z,43.17
2022-08-17T13:38:04.409Z,42.85
2022-08-17T13:40:45.348Z,42.25
2022-08-17T13:43:48.448Z,42.05
2022-08-17T13:46:24.930Z,43.53
2022-08-17T13:49:09.743Z,42.50
2022-08-17T13:51:46.680Z,42.15
2022-08-17T13:54:36.209Z,42.08
2022-08-17T13:57:21.449Z,43.15
2022-08-17T13:59:58.157Z,42.63
2022-08-17T14:02:27.938Z,41.35
2022-08-17T14:04:58.550Z,41.70
2022-08-17T14:07:33.553Z,39.72
2022-08-17T14:10:15.227Z,39.22
2022-08-17T14:12:45.264Z,39.47
2022-08-17T14:15:17.117Z,39.05
2022-08-17T14:17:44.781Z,37.42
2022-08-17T14:20:14.025Z,35.65
2022-08-17T14:22:49.460Z,37.40
2022-08-17T14:25:26.912Z,38.63
2022-08-17T14:27:55.648Z,36.58
2022-08-17T14:30:29.700Z,37.65
2022-08-17T14:32:59.193Z,36.42
2022-08-17T14:35:28.826Z,38.13
2022-08-17T14:37:56.564Z,37.50
2022-08-17T14:40:25.358Z,35.55
2022-08-17T14:42:56.311Z,34.03
2022-08-17T14:45:31.773Z,37.40
2022-08-17T14:48:07.666Z,34.28
2022-08-17T14:50:41.741Z,37.33
2022-08-17T14:53:13.639Z,35.60
2022-08-17T14:55:42.269Z,31.65
2022-08-17T14:58:09.921Z,37.00
2022-08-17T15:00:38.881Z,36.35
2022-08-17T15:03:06.704Z,35.75
2022-08-17T15:05:38.130Z,32.88
2022-08-17T15:10:35.218Z,33.05
2022-08-17T15:13:03.698Z,35.72
2022-08-17T15:15:31.280Z,34.40
2022-08-17T15:17:59.929Z,36.55
2022-08-17T15:20:30.188Z,38.45
2022-08-17T15:22:59.028Z,36.25
2022-08-17T15:25:31.900Z,34.67
2022-08-17T15:28:00.499Z,38.58
2022-08-17T15:30:29.407Z,39.33
2022-08-17T15:33:00.634Z,36.63
2022-08-17T15:35:32.936Z,37.90
2022-08-17T15:38:11.149Z,35.92
2022-08-17T15:40:48.325Z,36.47
2022-08-17T15:43:32.436Z,36.38
2022-08-17T15:46:17.444Z,34.92
2022-08-17T15:48:52.133Z,36.85
2022-08-17T15:51:30.725Z,34.58
2022-08-17T15:54:18.723Z,36.50
2022-08-17T15:56:49.911Z,33.88
2022-08-17T15:59:17.802Z,34.28
2022-08-17T16:03:09.849Z,36.25
2022-08-17T16:04:33.246Z,37.40
2022-08-17T16:07:01.148Z,34.58
2022-08-17T16:09:28.756Z,35.83
2022-08-17T16:11:56.749Z,36.35
2022-08-17T16:14:30.217Z,36.25
2022-08-17T16:17:05.038Z,32.72
2022-08-17T16:19:52.905Z,37.50
2022-08-17T16:22:44.978Z,40.97
2022-08-17T16:25:49.024Z,36.88
2022-08-17T16:28:17.645Z,38.28
2022-08-17T16:30:45.457Z,36.45
2022-08-17T16:33:16.670Z,36.20
2022-08-17T16:35:44.288Z,36.78
2022-08-17T16:38:12.481Z,36.20
2022-08-17T16:40:44.085Z,33.97
2022-08-17T16:43:11.985Z,37.67
2022-08-17T16:45:40.539Z,37.75
2022-08-17T16:48:09.433Z,37.50
2022-08-17T16:50:37.810Z,39.05
2022-08-17T16:53:18.275Z,39.33
2022-08-17T16:55:48.875Z,39.28
2022-08-17T16:58:16.375Z,38.30
2022-08-17T17:00:45.659Z,40.88
2022-08-17T17:03:19.881Z,38.30
2022-08-17T17:05:55.282Z,36.53
2022-08-17T17:08:31.294Z,38.80
2022-08-17T17:11:23.117Z,38.60
2022-08-17T17:14:02.479Z,41.42
2022-08-17T17:16:49.642Z,40.80
2022-08-17T17:19:38.398Z,41.38
2022-08-17T17:22:26.849Z,39.53
2022-08-17T17:25:16.642Z,43.10
2022-08-17T17:28:01.417Z,39.15
2022-08-17T17:30:56.776Z,41.92
2022-08-17T17:33:40.467Z,44.50
2022-08-17T17:36:32.885Z,44.58
2022-08-17T17:39:26.048Z,38.45
2022-08-17T17:42:07.682Z,40.75
2022-08-17T17:47:09.873Z,39.15
2022-08-17T17:49:45.926Z,41.25
2022-08-17T17:52:57.927Z,42.17
2022-08-17T17:55:39.982Z,36.67
2022-08-17T17:58:07.403Z,38.47
2022-08-17T18:00:43.825Z,40.25
2022-08-17T18:03:41.768Z,37.28
2022-08-17T18:06:30.511Z,37.45
2022-08-17T18:09:25.307Z,38.30
2022-08-17T18:12:22.430Z,35.60
2022-08-17T18:15:33.904Z,37.72
2022-08-17T18:18:14.616Z,37.95
2022-08-17T18:20:55.835Z,39.13
2022-08-17T18:23:28.123Z,38.33
2022-08-17T18:25:58.537Z,35.70
2022-08-17T18:28:39.833Z,39.28
2022-08-17T18:31:21.425Z,39.28
2022-08-17T18:36:39.831Z,38.72
2022-08-17T18:39:28.553Z,39.42
2022-08-17T18:41:59.456Z,37.92
2022-08-17T18:44:49.605Z,40.45
2022-08-17T18:47:29.376Z,42.70
2022-08-17T18:50:27.162Z,40.85
2022-08-17T18:53:26.604Z,40.70
2022-08-17T18:56:42.061Z,39.35
2022-08-17T18:59:28.345Z,40.65
2022-08-17T19:02:38.788Z,46.28
2022-08-17T19:05:39.045Z,45.25
2022-08-17T19:08:30.767Z,42.78
2022-08-17T19:13:45.232Z,40.38
2022-08-17T19:17:09.768Z,43.58
2022-08-17T19:20:02.900Z,42.65
2022-08-17T19:23:02.246Z,42.45
2022-08-17T19:25:38.317Z,39.10
2022-08-17T19:28:22.218Z,39.15
2022-08-17T19:30:57.763Z,44.17
2022-08-17T19:33:26.789Z,43.05
2022-08-17T19:36:12.763Z,46.30
2022-08-17T19:38:56.862Z,47.25
2022-08-17T19:41:47.316Z,43.55
2022-08-17T19:44:52.686Z,42.67
2022-08-17T19:48:12.419Z,40.40
2022-08-17T19:50:58.926Z,41.83
2022-08-17T19:54:06.581Z,47.75
2022-08-17T19:56:43.584Z,41.55
2022-08-17T19:59:46.191Z,45.35
2022-08-17T20:02:30.807Z,42.15
2022-08-17T20:05:11.263Z,42.30
2022-08-17T20:07:45.978Z,43.58
2022-08-17T20:10:28.602Z,45.55
2022-08-17T20:13:09.751Z,40.83
2022-08-17T20:15:42.927Z,39.17
2022-08-17T20:18:29.814Z,44.53
2022-08-17T20:21:06.259Z,42.58
2022-08-17T20:23:59.925Z,45.95
2022-08-17T20:26:43.884Z,47.78
2022-08-17T20:29:36.918Z,47.78
2022-08-17T20:32:20.871Z,45.35
2022-08-17T20:34:48.698Z,50.70
2022-08-17T20:37:16.023Z,45.22
2022-08-17T20:39:49.695Z,48.72
2022-08-17T20:42:19.900Z,50.22
2022-08-17T20:44:52.885Z,46.88
2022-08-17T20:47:55.381Z,51.72
2022-08-17T20:50:38.702Z,50.00
2022-08-17T20:53:13.510Z,48.70
2022-08-17T20:55:51.862Z,48.97
2022-08-17T20:58:30.899Z,50.30
2022-08-17T21:00:58.922Z,53.45
2022-08-17T21:03:50.567Z,51.28
2022-08-17T21:06:22.140Z,48.88
2022-08-17T21:09:12.583Z,53.35
2022-08-17T21:11:58.236Z,51.35
2022-08-17T21:15:07.839Z,49.05
2022-08-17T21:17:50.187Z,51.15
2022-08-17T21:20:48.808Z,51.72
2022-08-17T21:23:43.889Z,55.60
2022-08-17T21:26:32.754Z,53.58
2022-08-17T21:29:32.504Z,51.13
2022-08-17T21:32:05.306Z,49.83
2022-08-17T21:34:43.482Z,51.55
2022-08-17T21:37:19.871Z,50.17
2022-08-17T21:40:18.877Z,47.67
2022-08-17T21:42:55.501Z,52.90
2022-08-17T21:45:35.469Z,54.88
2022-08-17T21:48:16.673Z,54.10
2022-08-17T21:50:59.280Z,55.90
2022-08-17T21:53:57.922Z,52.65
2022-08-17T21:56:40.714Z,52.25
2022-08-17T21:59:27.305Z,53.70
2022-08-17T22:02:00.641Z,55.90
2022-08-17T22:04:33.439Z,49.60
2022-08-17T22:07:06.921Z,56.55
2022-08-17T22:09:44.436Z,55.00
2022-08-17T22:12:18.532Z,56.63
2022-08-17T22:15:01.836Z,54.25
2022-08-17T22:17:36.780Z,54.25
2022-08-17T22:20:18.869Z,58.40
2022-08-17T22:23:05.039Z,58.85
2022-08-17T22:25:39.426Z,57.08
2022-08-17T22:28:10.984Z,57.38
2022-08-17T22:33:33.288Z,51.75
2022-08-17T22:36:21.992Z,55.88
2022-08-17T22:38:59.171Z,55.50
2022-08-17T22:41:48.357Z,57.38
2022-08-17T22:44:24.052Z,55.75
2022-08-17T22:47:11.093Z,58.75
2022-08-17T22:50:00.011Z,58.65
2022-08-17T22:52:58.713Z,58.47
2022-08-17T22:55:48.487Z,52.20
2022-08-17T22:58:40.868Z,55.88
2022-08-17T23:01:32.621Z,57.20
2022-08-17T23:06:36.124Z,54.35
2022-08-17T23:09:07.380Z,54.65
2022-08-17T23:11:49.109Z,58.53
2022-08-17T23:14:20.649Z,56.75
2022-08-17T23:16:50.994Z,54.42
2022-08-17T23:19:21.512Z,55.03
2022-08-17T23:21:52.406Z,60.03
2022-08-17T23:24:25.824Z,60.38
2022-08-17T23:26:57.232Z,56.15
2022-08-17T23:34:28.465Z,55.45
2022-08-17T23:36:55.975Z,57.45
2022-08-17T23:39:27.583Z,52.85
2022-08-17T23:41:59.152Z,57.22
2022-08-17T23:44:28.909Z,56.47
2022-08-17T23:46:56.907Z,56.83
2022-08-17T23:49:25.201Z,55.70
2022-08-17T23:51:56.566Z,59.35
2022-08-17T23:54:37.431Z,57.28
2022-08-17T23:57:04.993Z,59.30
2022-08-17T23:59:33.772Z,62.35
